createdAt,value
2018-03-25T00:00:11.031Z,38.63
2018-03-25T00:02:39.441Z,38.80
2018-03-25T00:05:09.172Z,40.27
2018-03-25T00:07:38.158Z,39.17
2018-03-25T00:10:07.165Z,39.43
2018-03-25T00:12:36.644Z,38.37
2018-03-25T00:15:05.691Z,36.70
2018-03-25T00:17:33.935Z,32.20
2018-03-25T00:20:03.084Z,35.63
2018-03-25T00:22:31.386Z,33.00
2018-03-25T00:24:59.844Z,39.87
2018-03-25T00:27:29.184Z,35.83
2018-03-25T00:29:57.426Z,41.53
2018-03-25T00:32:25.660Z,41.47
2018-03-25T00:34:54.670Z,43.63
2018-03-25T00:37:22.947Z,39.97
2018-03-25T00:39:51.370Z,43.53
2018-03-25T00:42:19.637Z,42.63
2018-03-25T00:44:47.865Z,41.57
2018-03-25T00:47:16.882Z,41.77
2018-03-25T00:49:46.004Z,39.27
2018-03-25T00:52:14.382Z,45.30
2018-03-25T00:54:42.675Z,41.03
2018-03-25T00:57:11.808Z,40.63
2018-03-25T00:59:40.801Z,40.93
2018-03-25T01:02:09.120Z,40.87
2018-03-25T01:04:38.168Z,36.50
2018-03-25T01:07:06.590Z,34.67
2018-03-25T01:09:34.984Z,37.53
2018-03-25T01:12:03.479Z,38.70
2018-03-25T01:14:32.597Z,39.03
2018-03-25T01:17:01.669Z,36.43
2018-03-25T01:19:30.209Z,44.03
2018-03-25T01:22:00.356Z,38.83
2018-03-25T01:24:32.205Z,39.07
2018-03-25T01:27:06.857Z,36.37
2018-03-25T01:29:40.866Z,35.40
2018-03-25T01:32:10.031Z,34.47
2018-03-25T01:34:44.757Z,40.60
2018-03-25T01:37:24.025Z,37.97
2018-03-25T01:39:52.447Z,42.73
2018-03-25T01:42:23.604Z,43.77
2018-03-25T01:44:51.948Z,38.33
2018-03-25T01:47:20.320Z,40.00
2018-03-25T01:49:48.705Z,33.67
2018-03-25T01:52:16.953Z,35.50
2018-03-25T01:54:45.254Z,35.57
2018-03-25T01:57:13.548Z,38.07
2018-03-25T01:59:42.481Z,40.03
2018-03-25T02:02:11.452Z,52.43
2018-03-25T02:04:39.691Z,59.53
2018-03-25T02:07:07.929Z,64.80
2018-03-25T02:09:36.920Z,74.07
2018-03-25T02:12:05.178Z,54.93
2018-03-25T02:14:34.225Z,58.50
2018-03-25T02:17:02.483Z,56.03
2018-03-25T02:19:30.799Z,49.77
2018-03-25T02:21:59.174Z,43.83
2018-03-25T02:24:27.474Z,51.87
2018-03-25T02:26:56.654Z,44.47
2018-03-25T02:29:25.361Z,39.67
2018-03-25T02:31:55.108Z,41.90
2018-03-25T02:34:24.130Z,39.67
2018-03-25T02:36:52.376Z,55.33
2018-03-25T02:39:21.509Z,47.17
2018-03-25T02:41:50.628Z,41.30
2018-03-25T02:44:18.924Z,34.30
2018-03-25T02:46:47.476Z,34.33
2018-03-25T02:49:15.714Z,32.63
2018-03-25T02:51:44.750Z,40.53
2018-03-25T02:54:12.998Z,46.87
2018-03-25T02:56:41.300Z,49.80
2018-03-25T02:59:09.613Z,56.40
2018-03-25T03:01:37.977Z,49.77
2018-03-25T03:04:06.367Z,41.37
2018-03-25T03:06:35.755Z,38.20
2018-03-25T03:09:04.020Z,34.80
2018-03-25T03:11:32.341Z,35.73
2018-03-25T03:14:00.612Z,37.50
2018-03-25T03:16:28.895Z,30.97
2018-03-25T03:18:57.127Z,39.37
2018-03-25T03:21:25.450Z,48.27
2018-03-25T03:23:53.699Z,64.53
2018-03-25T03:26:21.986Z,56.87
2018-03-25T03:28:50.251Z,63.50
2018-03-25T03:31:18.474Z,87.53
2018-03-25T03:33:47.518Z,70.73
2018-03-25T03:36:15.860Z,78.67
2018-03-25T03:38:44.183Z,93.87
2018-03-25T03:41:12.451Z,95.03
2018-03-25T03:43:41.075Z,79.23
2018-03-25T03:46:09.326Z,99.47
2018-03-25T03:48:37.978Z,75.30
2018-03-25T03:51:07.135Z,84.10
2018-03-25T03:53:36.294Z,80.27
2018-03-25T03:56:04.601Z,75.23
2018-03-25T03:58:32.876Z,69.37
2018-03-25T04:01:01.201Z,66.33
2018-03-25T04:03:29.944Z,64.83
2018-03-25T04:05:58.257Z,71.20
2018-03-25T04:08:26.542Z,63.87
2018-03-25T04:10:54.833Z,60.43
2018-03-25T04:13:23.076Z,55.30
2018-03-25T04:15:51.440Z,56.20
2018-03-25T04:18:21.212Z,53.87
2018-03-25T04:20:49.471Z,51.23
2018-03-25T04:23:19.346Z,47.43
2018-03-25T04:25:48.276Z,44.83
2018-03-25T04:28:16.594Z,46.70
2018-03-25T04:30:45.624Z,46.30
2018-03-25T04:33:13.906Z,46.40
2018-03-25T04:35:42.935Z,53.20
2018-03-25T04:38:11.444Z,56.50
2018-03-25T04:40:39.710Z,52.83
2018-03-25T04:43:08.088Z,69.33
2018-03-25T04:45:37.250Z,54.40
2018-03-25T04:48:05.532Z,54.17
2018-03-25T04:50:34.834Z,49.13
2018-03-25T04:53:03.860Z,48.90
2018-03-25T04:55:32.167Z,44.93
2018-03-25T04:58:00.434Z,48.93
2018-03-25T05:00:29.498Z,49.20
2018-03-25T05:02:57.743Z,45.13
2018-03-25T05:05:26.121Z,44.07
2018-03-25T05:07:55.149Z,88.23
2018-03-25T05:10:23.478Z,52.10
2018-03-25T05:12:52.495Z,50.03
2018-03-25T05:15:21.760Z,48.57
2018-03-25T05:17:50.013Z,53.00
2018-03-25T05:20:18.264Z,50.23
2018-03-25T05:22:46.673Z,47.00
2018-03-25T05:25:15.041Z,42.80
2018-03-25T05:27:43.271Z,43.13
2018-03-25T05:30:12.278Z,38.97
2018-03-25T05:32:41.669Z,44.87
2018-03-25T05:35:11.457Z,46.10
2018-03-25T05:37:39.946Z,46.13
2018-03-25T05:40:08.216Z,41.43
2018-03-25T05:42:36.491Z,46.50
2018-03-25T05:45:05.068Z,48.87
2018-03-25T05:47:33.334Z,48.43
2018-03-25T05:50:01.591Z,52.80
2018-03-25T05:52:30.855Z,52.03
2018-03-25T05:54:59.923Z,53.73
2018-03-25T05:57:29.232Z,56.73
2018-03-25T05:59:57.603Z,52.00
2018-03-25T06:02:25.932Z,51.40
2018-03-25T06:04:55.187Z,54.97
2018-03-25T06:07:23.594Z,61.53
2018-03-25T06:09:51.842Z,69.33
2018-03-25T06:12:20.139Z,67.70
2018-03-25T06:14:48.495Z,63.63
2018-03-25T06:17:16.904Z,52.83
2018-03-25T06:19:45.366Z,54.50
2018-03-25T06:22:13.672Z,63.83
2018-03-25T06:24:42.695Z,64.73
2018-03-25T06:27:11.342Z,77.73
2018-03-25T06:29:39.626Z,69.20
2018-03-25T06:32:08.690Z,69.83
2018-03-25T06:34:37.090Z,58.60
2018-03-25T06:37:05.410Z,58.13
2018-03-25T06:39:34.596Z,66.60
2018-03-25T06:42:02.876Z,72.20
2018-03-25T06:44:31.340Z,66.23
2018-03-25T06:46:59.706Z,76.47
2018-03-25T06:49:29.502Z,92.93
2018-03-25T06:51:57.765Z,96.53
2018-03-25T06:54:26.095Z,110.67
2018-03-25T06:56:55.166Z,99.00
2018-03-25T06:59:23.748Z,90.17
2018-03-25T07:01:52.231Z,87.30
2018-03-25T07:04:20.529Z,95.43
2018-03-25T07:06:50.331Z,84.30
2018-03-25T07:09:18.794Z,77.17
2018-03-25T07:11:47.073Z,74.23
2018-03-25T07:14:16.163Z,67.00
2018-03-25T07:16:44.559Z,77.07
2018-03-25T07:19:12.831Z,63.03
2018-03-25T07:21:41.230Z,61.63
2018-03-25T07:24:09.506Z,72.07
2018-03-25T07:26:37.791Z,60.27
2018-03-25T07:29:06.882Z,65.83
2018-03-25T07:31:35.942Z,62.10
2018-03-25T07:34:04.250Z,65.10
2018-03-25T07:36:32.501Z,68.83
2018-03-25T07:39:00.994Z,65.23
2018-03-25T07:41:29.399Z,61.87
2018-03-25T07:43:57.696Z,68.33
2018-03-25T07:46:26.848Z,67.07
2018-03-25T07:48:55.098Z,65.63
2018-03-25T07:51:23.436Z,65.50
2018-03-25T07:53:52.474Z,65.93
2018-03-25T07:56:21.507Z,64.53
2018-03-25T07:58:49.888Z,64.83
2018-03-25T08:01:18.199Z,62.67
2018-03-25T08:03:47.256Z,63.47
2018-03-25T08:06:15.525Z,62.13
2018-03-25T08:08:43.839Z,61.07
2018-03-25T08:11:12.851Z,57.83
2018-03-25T08:13:41.318Z,63.07
2018-03-25T08:16:09.833Z,56.00
2018-03-25T08:18:38.379Z,62.97
2018-03-25T08:21:06.676Z,63.70
2018-03-25T08:23:36.003Z,61.63
2018-03-25T08:26:04.444Z,59.40
2018-03-25T08:28:32.797Z,63.70
2018-03-25T08:31:01.107Z,59.87
2018-03-25T08:33:30.263Z,64.10
2018-03-25T08:35:58.515Z,64.60
2018-03-25T08:38:26.817Z,64.83
2018-03-25T08:40:55.083Z,62.07
2018-03-25T08:43:23.401Z,63.50
2018-03-25T08:45:51.681Z,63.20
2018-03-25T08:48:19.967Z,64.93
2018-03-25T08:50:48.317Z,58.17
2018-03-25T08:53:16.736Z,64.20
2018-03-25T08:55:45.884Z,59.80
2018-03-25T08:58:14.129Z,56.37
2018-03-25T09:00:43.267Z,57.77
2018-03-25T09:03:11.534Z,60.10
2018-03-25T09:05:40.178Z,59.60
2018-03-25T09:08:08.487Z,60.97
2018-03-25T09:10:36.809Z,59.47
2018-03-25T09:13:05.137Z,57.43
2018-03-25T09:15:33.559Z,59.90
2018-03-25T09:18:02.030Z,56.10
2018-03-25T09:20:30.289Z,60.57
2018-03-25T09:22:58.567Z,61.80
2018-03-25T09:25:26.815Z,59.40
2018-03-25T09:27:55.850Z,59.97
2018-03-25T09:30:24.275Z,59.40
2018-03-25T09:32:53.450Z,58.13
2018-03-25T09:35:21.734Z,55.97
2018-03-25T09:37:51.200Z,56.33
2018-03-25T09:40:20.408Z,58.80
2018-03-25T09:42:48.678Z,56.17
2018-03-25T09:45:17.177Z,58.63
2018-03-25T09:47:45.457Z,55.43
2018-03-25T09:50:13.874Z,61.13
2018-03-25T09:52:42.336Z,59.27
2018-03-25T09:55:10.789Z,58.77
2018-03-25T09:57:39.100Z,59.43
2018-03-25T10:00:07.450Z,56.60
2018-03-25T10:02:41.301Z,55.30
2018-03-25T10:05:09.856Z,57.53
2018-03-25T10:07:38.133Z,55.63
2018-03-25T10:10:06.998Z,55.57
2018-03-25T10:12:35.405Z,55.27
2018-03-25T10:15:04.008Z,58.57
2018-03-25T10:17:34.336Z,57.90
2018-03-25T10:20:02.668Z,61.53
2018-03-25T10:22:31.027Z,58.60
2018-03-25T10:25:00.198Z,59.17
2018-03-25T10:27:28.504Z,55.60
2018-03-25T10:29:56.802Z,59.07
2018-03-25T10:32:25.277Z,58.50
2018-03-25T10:34:53.582Z,62.13
2018-03-25T10:37:21.983Z,56.57
2018-03-25T10:39:50.257Z,57.63
2018-03-25T10:42:18.569Z,58.60
2018-03-25T10:44:47.751Z,55.83
2018-03-25T10:47:16.910Z,57.17
2018-03-25T10:49:45.259Z,58.20
2018-03-25T10:52:14.264Z,57.30
2018-03-25T10:54:43.491Z,58.33
2018-03-25T10:57:11.765Z,56.20
2018-03-25T10:59:40.919Z,54.47
2018-03-25T11:02:09.275Z,55.73
2018-03-25T11:04:37.537Z,51.77
2018-03-25T11:07:06.032Z,53.67
2018-03-25T11:09:35.133Z,54.80
2018-03-25T11:12:04.275Z,52.60
2018-03-25T11:14:32.482Z,53.87
2018-03-25T11:17:00.868Z,52.77
2018-03-25T11:19:29.330Z,52.60
2018-03-25T11:21:57.591Z,57.07
2018-03-25T11:24:26.028Z,55.13
2018-03-25T11:26:54.348Z,51.97
2018-03-25T11:29:22.958Z,51.67
2018-03-25T11:31:51.336Z,51.23
2018-03-25T11:34:19.556Z,51.43
2018-03-25T11:36:48.042Z,53.30
2018-03-25T11:39:17.136Z,52.60
2018-03-25T11:41:46.764Z,51.93
2018-03-25T11:44:15.124Z,51.37
2018-03-25T11:46:44.200Z,50.37
2018-03-25T11:49:12.648Z,50.17
2018-03-25T11:51:40.970Z,49.27
2018-03-25T11:54:10.602Z,47.73
2018-03-25T11:56:39.816Z,47.90
2018-03-25T11:59:08.120Z,52.83
2018-03-25T12:01:36.437Z,47.33
2018-03-25T12:04:05.597Z,47.97
2018-03-25T12:06:34.807Z,49.40
2018-03-25T12:09:03.437Z,51.10
2018-03-25T12:11:31.905Z,51.37
2018-03-25T12:14:00.948Z,48.57
2018-03-25T12:16:30.861Z,46.87
2018-03-25T12:18:59.254Z,49.73
2018-03-25T12:21:27.641Z,50.20
2018-03-25T12:23:56.051Z,49.30
2018-03-25T12:26:25.333Z,47.00
2018-03-25T12:28:54.623Z,48.57
2018-03-25T12:31:23.115Z,44.67
2018-03-25T12:33:51.685Z,45.87
2018-03-25T12:36:20.178Z,45.73
2018-03-25T12:38:48.702Z,45.13
2018-03-25T12:41:17.458Z,46.07
2018-03-25T12:43:45.748Z,46.73
2018-03-25T12:46:14.791Z,42.53
2018-03-25T12:48:43.911Z,44.07
2018-03-25T12:51:12.249Z,44.03
2018-03-25T12:53:41.511Z,45.07
2018-03-25T12:56:09.873Z,43.27
2018-03-25T12:58:38.976Z,48.10
2018-03-25T13:01:07.323Z,46.17
2018-03-25T13:03:35.732Z,46.03
2018-03-25T13:06:04.135Z,42.63
2018-03-25T13:08:33.222Z,41.50
2018-03-25T13:11:02.450Z,44.43
2018-03-25T13:13:31.467Z,42.67
2018-03-25T13:15:59.861Z,46.50
2018-03-25T13:18:28.444Z,42.97
2018-03-25T13:20:56.888Z,42.03
2018-03-25T13:23:25.953Z,43.70
2018-03-25T13:25:54.442Z,47.07
2018-03-25T13:28:22.806Z,43.07
2018-03-25T13:30:51.660Z,43.87
2018-03-25T13:33:19.979Z,44.60
2018-03-25T13:35:48.574Z,43.20
2018-03-25T13:38:17.022Z,45.73
2018-03-25T13:40:45.321Z,43.00
2018-03-25T13:43:13.604Z,43.97
2018-03-25T13:45:42.801Z,42.73
2018-03-25T13:48:11.185Z,46.10
2018-03-25T13:50:40.486Z,45.63
2018-03-25T13:53:09.686Z,44.63
2018-03-25T13:55:38.223Z,46.77
2018-03-25T13:58:07.434Z,45.97
2018-03-25T14:00:35.842Z,46.80
2018-03-25T14:03:04.149Z,45.20
2018-03-25T14:05:32.527Z,41.87
2018-03-25T14:08:00.935Z,42.33
2018-03-25T14:10:29.960Z,42.07
2018-03-25T14:12:58.258Z,43.03
2018-03-25T14:15:26.594Z,43.70
2018-03-25T14:17:55.629Z,41.33
2018-03-25T14:20:23.933Z,38.03
2018-03-25T14:22:52.238Z,35.73
2018-03-25T14:25:21.480Z,35.97
2018-03-25T14:27:49.775Z,35.10
2018-03-25T14:30:18.153Z,32.20
2018-03-25T14:32:47.142Z,36.43
2018-03-25T14:35:15.453Z,29.13
2018-03-25T14:37:44.497Z,30.37
2018-03-25T14:40:12.815Z,29.40
2018-03-25T14:42:41.166Z,29.80
2018-03-25T14:45:10.530Z,31.13
2018-03-25T14:47:38.850Z,27.97
2018-03-25T14:50:07.301Z,28.80
2018-03-25T14:52:35.776Z,27.03
2018-03-25T14:55:04.742Z,28.43
2018-03-25T14:57:33.822Z,29.43
2018-03-25T15:00:02.226Z,26.93
2018-03-25T15:02:30.501Z,28.50
2018-03-25T15:04:58.754Z,27.10
2018-03-25T15:07:28.312Z,29.50
2018-03-25T15:09:56.627Z,28.43
2018-03-25T15:12:24.957Z,31.10
2018-03-25T15:14:53.712Z,28.80
2018-03-25T15:17:22.001Z,30.67
2018-03-25T15:19:50.352Z,27.47
2018-03-25T15:22:18.656Z,26.70
2018-03-25T15:24:47.128Z,23.93
2018-03-25T15:27:15.628Z,21.97
2018-03-25T15:29:44.811Z,23.23
2018-03-25T15:32:13.202Z,21.63
2018-03-25T15:34:42.321Z,24.43
2018-03-25T15:37:11.356Z,21.47
2018-03-25T15:39:39.770Z,23.07
2018-03-25T15:42:08.235Z,22.10
2018-03-25T15:44:36.691Z,21.37
2018-03-25T15:47:05.068Z,23.57
2018-03-25T15:49:33.475Z,21.27
2018-03-25T15:52:01.766Z,22.90
2018-03-25T15:54:30.139Z,19.93
2018-03-25T15:56:58.486Z,21.87
2018-03-25T15:59:27.776Z,21.57
2018-03-25T16:01:56.204Z,20.50
2018-03-25T16:04:24.557Z,22.03
2018-03-25T16:06:53.742Z,20.40
2018-03-25T16:09:22.790Z,20.53
2018-03-25T16:11:51.090Z,22.73
2018-03-25T16:14:20.145Z,24.63
2018-03-25T16:16:48.495Z,19.43
2018-03-25T16:19:16.825Z,23.47
2018-03-25T16:21:45.152Z,25.83
2018-03-25T16:24:13.583Z,27.40
2018-03-25T16:26:42.765Z,26.57
2018-03-25T16:29:11.032Z,30.80
2018-03-25T16:31:39.460Z,33.87
2018-03-25T16:34:08.637Z,32.30
2018-03-25T16:36:37.029Z,31.77
2018-03-25T16:39:07.952Z,33.57
2018-03-25T16:41:36.315Z,33.47
2018-03-25T16:44:04.627Z,31.87
2018-03-25T16:46:32.979Z,31.20
2018-03-25T16:49:01.279Z,30.73
2018-03-25T16:51:29.523Z,34.33
2018-03-25T16:53:58.369Z,34.67
2018-03-25T16:56:26.667Z,40.20
2018-03-25T16:58:54.962Z,36.83
2018-03-25T17:01:23.466Z,37.60
2018-03-25T17:03:51.727Z,36.57
2018-03-25T17:06:19.977Z,39.43
2018-03-25T17:08:49.077Z,39.37
2018-03-25T17:11:18.139Z,40.17
2018-03-25T17:13:46.418Z,39.17
2018-03-25T17:16:14.766Z,44.07
2018-03-25T17:18:43.042Z,41.13
2018-03-25T17:21:11.412Z,43.83
2018-03-25T17:23:39.724Z,42.67
2018-03-25T17:26:08.098Z,45.47
2018-03-25T17:28:36.383Z,47.77
2018-03-25T17:31:04.634Z,46.63
2018-03-25T17:33:32.947Z,49.03
2018-03-25T17:36:09.750Z,51.60
2018-03-25T17:38:38.882Z,50.60
2018-03-25T17:41:07.193Z,48.77
2018-03-25T17:43:35.481Z,47.40
2018-03-25T17:46:04.506Z,52.90
2018-03-25T17:48:33.880Z,53.90
2018-03-25T17:51:02.402Z,52.53
2018-03-25T17:53:31.638Z,55.20
2018-03-25T17:56:01.104Z,55.40
2018-03-25T17:58:29.452Z,56.63
2018-03-25T18:00:58.496Z,54.40
2018-03-25T18:03:26.913Z,56.30
2018-03-25T18:05:55.950Z,58.13
2018-03-25T18:08:26.253Z,57.30
2018-03-25T18:10:55.357Z,57.37
2018-03-25T18:13:24.516Z,65.43
2018-03-25T18:15:53.764Z,62.60
2018-03-25T18:18:22.095Z,66.50
2018-03-25T18:20:56.307Z,62.17
2018-03-25T18:23:19.787Z,62.90
2018-03-25T18:25:48.266Z,64.20
2018-03-25T18:28:16.562Z,64.27
2018-03-25T18:30:45.732Z,65.83
2018-03-25T18:33:14.021Z,64.07
2018-03-25T18:35:42.544Z,68.03
2018-03-25T18:38:11.716Z,68.07
2018-03-25T18:40:40.084Z,72.30
2018-03-25T18:43:08.391Z,69.67
2018-03-25T18:45:37.551Z,75.30
2018-03-25T18:48:05.911Z,71.33
2018-03-25T18:50:34.170Z,73.13
2018-03-25T18:53:03.341Z,75.10
2018-03-25T18:55:32.446Z,76.90
2018-03-25T18:58:01.557Z,69.50
2018-03-25T19:00:31.125Z,82.20
2018-03-25T19:03:00.275Z,82.47
2018-03-25T19:05:29.347Z,81.23
2018-03-25T19:07:59.339Z,85.80
2018-03-25T19:10:28.011Z,84.97
2018-03-25T19:12:56.411Z,81.83
2018-03-25T19:15:25.007Z,83.83
2018-03-25T19:17:54.240Z,80.80
2018-03-25T19:20:22.544Z,83.20
2018-03-25T19:22:50.933Z,79.80
2018-03-25T19:25:20.128Z,75.17
2018-03-25T19:27:50.096Z,75.20
2018-03-25T19:30:20.462Z,81.80
2018-03-25T19:32:51.124Z,81.30
2018-03-25T19:35:19.632Z,79.30
2018-03-25T19:37:48.700Z,75.33
2018-03-25T19:40:17.313Z,83.10
2018-03-25T19:42:47.023Z,81.13
2018-03-25T19:45:15.382Z,79.40
2018-03-25T19:47:44.264Z,77.23
2018-03-25T19:50:13.973Z,79.37
2018-03-25T19:52:43.059Z,81.37
2018-03-25T19:55:11.284Z,73.57
2018-03-25T19:57:40.836Z,77.07
2018-03-25T20:00:09.330Z,71.63
2018-03-25T20:02:37.798Z,69.63
2018-03-25T20:05:06.108Z,69.53
2018-03-25T20:07:34.509Z,70.23
2018-03-25T20:10:03.610Z,72.83
2018-03-25T20:12:32.834Z,70.10
2018-03-25T20:15:01.151Z,77.07
2018-03-25T20:17:29.483Z,68.97
2018-03-25T20:19:58.461Z,73.43
2018-03-25T20:22:27.688Z,67.77
2018-03-25T20:24:56.151Z,69.27
2018-03-25T20:27:27.937Z,68.63
2018-03-25T20:29:56.825Z,72.83
2018-03-25T20:32:25.146Z,74.23
2018-03-25T20:34:53.497Z,77.10
2018-03-25T20:37:22.616Z,74.80
2018-03-25T20:39:50.952Z,79.70
2018-03-25T20:42:19.945Z,85.77
2018-03-25T20:44:48.993Z,93.80
2018-03-25T20:47:17.458Z,85.33
2018-03-25T20:49:45.757Z,90.83
2018-03-25T20:52:14.458Z,93.10
2018-03-25T20:54:42.686Z,92.23
2018-03-25T20:57:11.856Z,93.97
2018-03-25T20:59:40.869Z,92.53
2018-03-25T21:02:10.128Z,96.70
2018-03-25T21:04:38.426Z,92.83
2018-03-25T21:07:07.605Z,103.97
2018-03-25T21:09:35.868Z,99.23
2018-03-25T21:12:05.146Z,99.80
2018-03-25T21:14:33.480Z,108.17
2018-03-25T21:17:01.792Z,101.37
2018-03-25T21:19:30.065Z,115.70
2018-03-25T21:21:58.306Z,110.83
2018-03-25T21:24:27.375Z,107.27
2018-03-25T21:26:55.636Z,111.80
2018-03-25T21:29:24.013Z,107.13
2018-03-25T21:31:52.254Z,115.37
2018-03-25T21:34:20.668Z,112.27
2018-03-25T21:36:48.906Z,129.33
2018-03-25T21:39:17.973Z,112.40
2018-03-25T21:41:46.343Z,123.93
2018-03-25T21:44:15.443Z,118.47
2018-03-25T21:46:45.237Z,116.87
2018-03-25T21:49:14.325Z,117.97
2018-03-25T21:51:42.645Z,123.57
2018-03-25T21:54:11.816Z,116.40
2018-03-25T21:56:41.633Z,117.20
2018-03-25T21:59:10.407Z,116.73
2018-03-25T22:01:38.693Z,126.50
2018-03-25T22:04:07.167Z,126.30
2018-03-25T22:06:35.454Z,127.30
2018-03-25T22:09:03.804Z,132.03
2018-03-25T22:11:32.109Z,131.30
2018-03-25T22:14:00.517Z,130.30
2018-03-25T22:16:29.083Z,145.33
2018-03-25T22:19:00.302Z,140.00
2018-03-25T22:21:28.580Z,144.57
2018-03-25T22:23:56.985Z,137.13
2018-03-25T22:26:25.815Z,141.90
2018-03-25T22:28:54.878Z,151.73
2018-03-25T22:31:23.905Z,149.20
2018-03-25T22:33:52.421Z,152.80
2018-03-25T22:36:20.728Z,155.70
2018-03-25T22:38:49.308Z,152.13
2018-03-25T22:41:17.795Z,143.60
2018-03-25T22:43:46.078Z,139.40
2018-03-25T22:46:14.443Z,150.63
2018-03-25T22:48:43.642Z,157.80
2018-03-25T22:51:12.046Z,172.73
2018-03-25T22:53:40.318Z,161.40
2018-03-25T22:56:08.580Z,170.53
2018-03-25T22:58:36.982Z,189.13
2018-03-25T23:01:05.670Z,178.87
2018-03-25T23:03:34.748Z,181.00
2018-03-25T23:06:03.122Z,189.00
2018-03-25T23:08:31.501Z,186.53
2018-03-25T23:10:59.881Z,188.57
2018-03-25T23:13:28.170Z,195.47
2018-03-25T23:15:58.182Z,194.47
2018-03-25T23:18:27.528Z,202.10
2018-03-25T23:20:56.562Z,227.10
2018-03-25T23:23:24.901Z,203.97
2018-03-25T23:25:53.919Z,220.70
2018-03-25T23:28:23.066Z,218.50
2018-03-25T23:30:51.557Z,210.07
2018-03-25T23:33:20.865Z,198.40
2018-03-25T23:35:49.187Z,199.50
2018-03-25T23:38:18.029Z,152.03
2018-03-25T23:40:46.352Z,130.67
2018-03-25T23:43:14.828Z,124.53
2018-03-25T23:45:43.097Z,127.50
2018-03-25T23:48:11.339Z,132.77
2018-03-25T23:50:39.579Z,157.30
2018-03-25T23:53:08.691Z,148.27
2018-03-25T23:55:37.073Z,146.33
2018-03-25T23:58:05.322Z,155.43
